KERV/ERV METAR and TAF weather

Enter ICAO airport designator
Station Type Date Time Source
KERV METAR 2020/07/07 07:55 UTC NOAA

KERV 070755Z AUTO 15006KT 10SM SCT017 26/23 A2997 RMK AO2 T02550225


Station Type Date Time Source
KERV Decoded METAR 2020/07/07 07:55 UTC NOAA

Kerrville, Kerrville Municipal Airport/Louis Schreiner Field, TX, United States (KERV) 29-58N 099-05W
Jul 07, 2020 - 03:55 AM EDT / 2020.07.07 0755 UTC
Wind: from the SSE (150 degrees) at 7 MPH (6 KT):0
Visibility: 10 mile(s):0
Sky conditions: partly cloudy
Temperature: 77.9 F (25.5 C)
Dew Point: 72.5 F (22.5 C)
Relative Humidity: 83%
Pressure (altimeter): 29.97 in. Hg (1014 hPa)
ob: KERV 070755Z AUTO 15006KT 10SM SCT017 26/23 A2997 RMK AO2 T02550225
cycle: 8

Station Type Date Time Source
KERV TAF UTC NOAA

Error!

Example: see airport list